x

South Brooks (46132) Wave Buoy

6:00 - Wed 26th Nov 2014 All times are PST. -8 hours from GMT.

  • Sig Wave height 6.2ft
  • Peak Period 12s
  • Wind
    9mph, 11mph gusts
  • Sea Temp 53°f
  • Ar Temp 52°f
  • Sea Pressure 1012.7mb
  • South Brooks
  • South Brooks

More Historic Weather Station data

Upgrade to MSW Pro to gain access to the past 30 days of data for over 8000 Wavebouys and Weather Stations around the globe.

Join Pro

Comparision Forecast

View Surf forecast
   
Qua 11/26 6:00 6ft 12s 9 11 mph 1012.7mb 53f 52f
5:00 6.5ft 8s 13 16 mph 1013.5mb 54f 50f
4:00 6ft 12s 13 18 mph 1013.6mb 54f 49f
3:00 6ft 12s 13 16 mph 1015.1mb 54f 49f
2:00 6ft 10s 13 18 mph 1015.3mb 54f 49f
1:00 6ft 11s 11 13 mph 1016.1mb 53f 49f
12:00 6ft 12s 11 13 mph 1016.7mb 53f 49f
Ter 11/25 11:00 5.5ft 13s 11 13 mph 1017.2mb 53f 49f
10:00 6ft 12s 11 13 mph 1017.5mb 53f 48f
9:00 6ft 11s 11 13 mph 1017.7mb 53f 48f
8:00 6ft 12s 13 16 mph 1017.7mb 53f 47f
7:00 6ft 11s 13 16 mph 1018mb 53f 47f
6:00 7ft 12s 11 16 mph 1018.4mb 53f 47f
5:00 6ft 11s 11 16 mph 1019.1mb 53f 46f
4:00 6ft 12s 11 16 mph 1019.2mb 53f 47f
3:00 7ft 12s 11 16 mph 1019.9mb 53f 47f
2:00 7ft 11s 11 16 mph 1020.2mb 53f 47f
1:00 7.5ft 12s 11 16 mph 1021.2mb 53f 46f
12:00 8ft 11s 9 11 mph 1021.8mb 53f 47f
11:00 8ft 11s 11 16 mph 1022.3mb 53f 48f
10:00 8.5ft 13s 9 11 mph 1022.2mb 53f 49f
9:00 8.5ft 14s 9 13 mph 1022.5mb 53f 50f
8:00 7.5ft 13s 7 13 mph 1021.9mb 53f 51f
7:00 9ft 12s 7 9 mph 1021.5mb 53f 52f
6:00 9ft 12s 2 4 mph 1021.7mb 53f 52f
5:00 9ft 11s 9 11 mph 1021.8mb 53f 52f
4:00 10.5ft 12s 9 11 mph 1021.3mb 53f 52f
3:00 9.5ft 13s 11 13 mph 1021.5mb 53f 52f
2:00 10.5ft 11s 11 13 mph 1020.8mb 53f 52f
1:00 11ft 13s 9 11 mph 1020.7mb 53f 52f
12:00 11ft 12s 13 16 mph 1021mb 53f 53f
Seg 11/24 11:00 10.5ft 12s 13 16 mph 1020.3mb 53f 53f
10:00 10.5ft 14s 16 18 mph 1019.8mb 53f 53f
9:00 10ft 14s 16 20 mph 1018.9mb 53f 53f
8:00 11ft 14s 16 18 mph 1018.4mb 53f 53f
7:00 10ft 13s 20 25 mph 1017.8mb 54f 53f
6:00 10ft 13s 18 22 mph 1017mb 53f 53f
5:00 11ft 14s 22 27 mph 1016mb 53f 53f
4:00 11ft 13s 20 25 mph 1015.6mb 53f 53f
3:00 12ft 13s 16 20 mph 1014.8mb 53f 53f
2:00 12ft 10s 9 11 mph 1014.2mb 53f 54f
1:00 13.5ft 12s 13 16 mph 1014mb 53f 54f
12:00 14ft 10s 20 25 mph 1015mb 53f 54f
11:00 13ft 14s 22 27 mph 1015mb 53f 55f
10:00 13.5ft 12s 22 27 mph 1015mb 53f 54f
9:00 13.5ft 14s 22 27 mph 1015.4mb 53f 54f
8:00 14ft 13s 25 29 mph 1015.9mb 53f 54f
7:00 13ft 14s 25 31 mph 1016.3mb 53f 54f
6:00 12ft 14s 18 27 mph 1017.5mb 53f 54f
5:00 12ft 12s 22 31 mph 1018.2mb 53f 52f
4:00 12.5ft 14s 29 36 mph 1018.7mb 53f 51f
3:00 11.5ft 13s 27 36 mph 1019.3mb 53f 51f
2:00 13ft 14s 25 29 mph 1020.4mb 53f 50f
1:00 13ft 14s 22 29 mph 1021.4mb 53f 53f
12:00 12ft 13s 20 27 mph 1021.8mb 53f 53f
Dom 11/23 11:00 13ft 13s 18 20 mph 1022mb 53f 53f
10:00 13.5ft 14s 16 22 mph 1022.4mb 53f 53f
9:00 14ft 14s 13 18 mph 1022.3mb 53f 53f
8:00 14ft 14s 11 16 mph 1022.9mb 53f 53f
7:00 15ft 13s 9 11 mph 1022.4mb 53f 53f
6:00 15ft 13s 7 9 mph 1022mb 53f 53f
5:00 15ft 13s 11 16 mph 1022.2mb 53f 53f
4:00 16ft 13s 13 18 mph 1021.4mb 53f 53f
3:00 14.5ft 14s 13 18 mph 1020.4mb 53f 53f
2:00 15.5ft 14s 16 22 mph 1019.9mb 53f 53f
1:00 16.5ft 13s 20 25 mph 1019.5mb 53f 53f
12:00 18.5ft 12s 18 25 mph 1019.2mb 53f 53f
11:00 16ft 14s 20 27 mph 1018.7mb 53f 52f
10:00 16ft 13s 18 25 mph 1017.4mb 53f 52f
9:00 15.5ft 11s 20 25 mph 1016.1mb 53f 51f
8:00 16ft 12s 22 29 mph 1015.2mb 53f 51f
7:00 17ft 11s 25 31 mph 1014.2mb 53f 52f
6:00 16.5ft 12s 20 25 mph 1013.3mb 53f 51f
5:00 14.5ft 11s 16 20 mph 1012.8mb 53f 50f
4:00 15.5ft 14s 18 22 mph 1011.8mb 53f 51f
3:00 15ft 14s 22 27 mph 1010.8mb 53f 53f
2:00 14ft 14s 20 25 mph 1010.4mb 53f 52f
1:00 13ft 12s 20 36 mph 1010mb 53f 52f
12:00 12.5ft 14s 20 25 mph 1009.2mb 53f 49f
Sáb 11/22 11:00 13ft 14s 31 36 mph 1008.4mb 53f 51f
10:00 12ft 13s 25 31 mph 1010.2mb 53f 51f
9:00 12ft 14s 22 27 mph 1010.9mb 53f 51f
8:00 12ft 14s 18 22 mph 1011.8mb 53f 53f
7:00 13ft 14s 16 18 mph 1012.2mb 53f 53f
6:00 12ft 14s 13 18 mph 1012.1mb 53f 53f
5:00 12ft 13s 16 18 mph 1011.9mb 53f 52f
4:00 13ft 14s 13 18 mph 1011.5mb 54f 52f